Startpagina
METAR-TAF:

METAR-TAF

Vliegvelden :

Luchthaven Kuressaare

Kuressaare, Estland

breedte: 58-13-48N, lengte: 022-30-34E, hoogte: 4 m

Actueel weer

Dit bericht is 23 minuten geleden gemaakt, om 11:50 UTC
Wind 20 kt uit het zuidzuidoosten
Temperatuur 2°C
Vochtigheid 80%
Druk 1026 hPa
Zicht 10 km of meer
Geheel bewolkt op 1700 ft

METAR: EEKE 221150Z 15020KT 9999 OVC017 02/M01 Q1026

Tijdstip: 14:13 (12:13 UTC)

Verwachting

Dit bericht is 6 uur en het 13 minuten geleden gemaakt, om 06:00 UTC
Verwachting geldig van 22 om 07 UTC tot 22 om 13 UTC
Wind 20 kt uit het zuidoosten
Zicht 10 km of meer
Geheel bewolkt op 2000 ft
Tijdelijke
van 22 om 07 UTC tot 22 om 10 UTC
Wind 22 kt uit het zuidzuidoosten met uitschieters tot 32 kt

TAF: EEKE 220600Z 2207/2213 13020KT 9999 OVC020 TEMPO 2207/2210 16022G32KT

Waarnemingen en weersverwachtingen van meer dan 4000 vliegvelden (METAR en TAF).

De beschikbare stations zijn de gele en rode punten op de kaart.

Ga met uw muis naar het station om de naam te zien.

Klik dan om waarnemingen en weersverwachtingen te zien.

kaart wijzigen: klik op de groene knoppen met een zwart kruis om in te zoomen, op de groene knop met een streepje om uit te zoomen of op de groene pijlen voor aangrenzende kaarten.


METAR-TAF: